Hauptseite
METAR-TAF:

METAR-TAF

Flughäfen :

Penn Valley Airport

Selinsgrove, Pennsylvania, Vereinigte Staaten

Breite: 40-49-09N, Länge: 076-51-58W, Höhe: 137 m

Beobachtung

Neuester Wetterbericht von vor 25 Minuten, um 04:53 UTC
Windstille
Temperatur 1°C
Luftfeuchtigkeit 100%
Luftdruck 1012 hPa
Sichtweite: 3.2 km
Geschlossene Wolkendecke in der Höhe von 300 ft
feuchter Dunst

METAR: KSEG 140453Z AUTO 00000KT 2SM BR OVC003 01/01 A2987 RMK AO2 CIG 002V006 SLP118 T00060006 400061011

Zeit: 00:18 (05:18 UTC)


TAF: fehlend

Wetterbeobachtungen und Prognosen von mehr als 4000 Flughäfen (METAR und TAF Bericht).

Die verfügbaren Stationen werden durch gelbe und rote Markierungen auf der Karte dargestellt.

Führen Sie die Maus auf sie, um den Namen der Station zu sehen.

Darauf klicken, um die Beobachtung von Wetterbeobachtungen und Prognosen zu sehen.

Um die Karte zu ändern : klicken Sie auf den grünen Tasten mit einem schwarzen Kreuz Zum Vergrößern, auf den grünen Button mit einem Gedankenstrich zu verkleinern, oder auf die grünen Pfeile für benachbarte Karten.


METAR-TAF: